createdAt,value
2023-01-18T00:01:32.834Z,79.62
2023-01-18T00:04:01.137Z,79.72
2023-01-18T00:06:29.356Z,79.80
2023-01-18T00:08:57.711Z,79.77
2023-01-18T00:11:26.071Z,79.72
2023-01-18T00:13:57.007Z,79.60
2023-01-18T00:16:26.001Z,79.25
2023-01-18T00:18:57.032Z,78.77
2023-01-18T00:21:26.874Z,78.78
2023-01-18T00:23:56.231Z,79.04
2023-01-18T00:26:24.512Z,79.26
2023-01-18T00:28:52.762Z,79.51
2023-01-18T00:31:22.851Z,79.68
2023-01-18T00:33:51.600Z,79.72
2023-01-18T00:36:20.365Z,79.72
2023-01-18T00:38:52.288Z,79.82
2023-01-18T00:41:21.175Z,79.78
2023-01-18T00:43:48.511Z,79.76
2023-01-18T00:46:19.049Z,79.84
2023-01-18T00:48:49.311Z,79.83
2023-01-18T00:51:19.988Z,79.73
2023-01-18T00:53:48.554Z,79.43
2023-01-18T00:56:18.496Z,79.19
2023-01-18T00:58:47.249Z,79.01
2023-01-18T01:01:18.035Z,78.96
2023-01-18T01:04:03.500Z,79.09
2023-01-18T01:06:54.717Z,79.40
2023-01-18T01:09:26.064Z,79.69
2023-01-18T01:12:12.768Z,79.62
2023-01-18T01:15:01.787Z,79.48
2023-01-18T01:17:48.313Z,79.30
2023-01-18T01:20:34.515Z,79.43
2023-01-18T01:23:28.911Z,79.53
2023-01-18T01:26:09.287Z,79.61
2023-01-18T01:28:39.129Z,79.50
2023-01-18T01:31:09.558Z,79.37
2023-01-18T01:33:39.591Z,79.70
2023-01-18T01:36:10.097Z,79.82
2023-01-18T01:38:41.471Z,79.71
2023-01-18T01:41:14.892Z,79.67
2023-01-18T01:43:45.755Z,79.56
2023-01-18T01:46:20.864Z,79.59
2023-01-18T01:48:49.648Z,79.78
2023-01-18T01:51:20.627Z,79.91
2023-01-18T01:53:51.741Z,80.09
2023-01-18T01:56:21.317Z,79.92
2023-01-18T01:58:52.965Z,79.76
2023-01-18T02:01:21.359Z,79.72
2023-01-18T02:03:49.797Z,79.70
2023-01-18T02:06:31.556Z,79.72
2023-01-18T02:09:04.024Z,79.81
2023-01-18T02:11:32.347Z,79.82
2023-01-18T02:14:03.909Z,79.79
2023-01-18T02:16:45.375Z,79.59
2023-01-18T02:19:39.695Z,79.69
2023-01-18T02:22:13.155Z,79.68
2023-01-18T02:25:19.055Z,79.56
2023-01-18T02:27:52.274Z,79.81
2023-01-18T02:30:31.493Z,79.57
2023-01-18T02:33:07.002Z,79.49
2023-01-18T02:35:48.674Z,79.34
2023-01-18T02:38:21.505Z,79.17
2023-01-18T02:41:03.463Z,79.01
2023-01-18T02:43:51.432Z,79.24
2023-01-18T02:46:34.878Z,79.23
2023-01-18T02:49:07.282Z,79.38
2023-01-18T02:51:35.748Z,79.40
2023-01-18T02:54:05.661Z,79.55
2023-01-18T02:56:38.998Z,79.61
2023-01-18T02:59:13.757Z,79.20
2023-01-18T03:01:48.130Z,79.38
2023-01-18T03:04:20.910Z,79.27
2023-01-18T03:06:53.371Z,79.47
2023-01-18T03:09:27.153Z,79.24
2023-01-18T03:12:02.248Z,79.39
2023-01-18T03:14:42.596Z,79.47
2023-01-18T03:17:20.415Z,79.60
2023-01-18T03:20:05.453Z,79.66
2023-01-18T03:22:55.803Z,79.82
2023-01-18T03:25:27.832Z,79.71
2023-01-18T03:28:15.325Z,79.87
2023-01-18T03:31:03.728Z,79.75
2023-01-18T03:33:48.931Z,79.55
2023-01-18T03:36:22.544Z,79.59
2023-01-18T03:38:55.374Z,79.60
2023-01-18T03:41:27.623Z,79.55
2023-01-18T03:43:59.438Z,79.18
2023-01-18T03:46:31.760Z,78.92
2023-01-18T03:49:01.829Z,78.97
2023-01-18T03:51:43.472Z,78.92
2023-01-18T03:54:18.415Z,79.02
2023-01-18T03:56:51.872Z,79.01
2023-01-18T03:59:21.654Z,78.93
2023-01-18T04:01:50.544Z,78.96
2023-01-18T04:04:20.221Z,78.92
2023-01-18T04:06:48.403Z,78.80
2023-01-18T04:09:16.679Z,78.75
2023-01-18T04:11:45.149Z,78.67
2023-01-18T04:14:13.540Z,78.74
2023-01-18T04:16:41.783Z,78.53
2023-01-18T04:19:10.859Z,78.55
2023-01-18T04:21:40.468Z,78.54
2023-01-18T04:24:09.407Z,78.48
2023-01-18T04:26:38.439Z,78.40
2023-01-18T04:29:06.847Z,78.50
2023-01-18T04:31:35.151Z,78.56
2023-01-18T04:34:03.434Z,78.54
2023-01-18T04:36:31.787Z,78.42
2023-01-18T04:39:01.473Z,78.38
2023-01-18T04:41:29.973Z,78.59
2023-01-18T04:43:58.288Z,78.75
2023-01-18T04:46:27.058Z,78.67
2023-01-18T04:48:55.330Z,78.71
2023-01-18T04:51:24.863Z,78.67
2023-01-18T04:53:53.241Z,78.52
2023-01-18T04:56:22.792Z,78.51
2023-01-18T04:58:53.741Z,78.33
2023-01-18T05:01:23.199Z,78.28
2023-01-18T05:03:53.300Z,78.08
2023-01-18T05:06:21.595Z,77.87
2023-01-18T05:08:50.619Z,77.76
2023-01-18T05:11:20.861Z,77.85
2023-01-18T05:13:50.796Z,77.85
2023-01-18T05:16:21.167Z,77.71
2023-01-18T05:18:49.524Z,77.60
2023-01-18T05:21:17.935Z,77.56
2023-01-18T05:23:46.266Z,77.76
2023-01-18T05:26:17.943Z,77.81
2023-01-18T05:28:46.967Z,77.79
2023-01-18T05:31:18.718Z,77.75
2023-01-18T05:33:47.173Z,77.56
2023-01-18T05:36:15.425Z,77.58
2023-01-18T05:38:43.663Z,77.60
2023-01-18T05:41:11.884Z,77.63
2023-01-18T05:43:40.536Z,77.65
2023-01-18T05:46:09.201Z,77.51
2023-01-18T05:48:39.211Z,77.33
2023-01-18T05:51:09.920Z,77.09
2023-01-18T05:53:39.781Z,76.98
2023-01-18T05:56:09.796Z,77.02
2023-01-18T05:58:38.427Z,77.05
2023-01-18T06:01:07.746Z,77.23
2023-01-18T06:03:36.909Z,77.18
2023-01-18T06:06:06.934Z,77.09
2023-01-18T06:08:35.135Z,76.86
2023-01-18T06:11:04.461Z,76.92
2023-01-18T06:13:33.483Z,76.86
2023-01-18T06:16:02.758Z,76.79
2023-01-18T06:18:32.862Z,76.74
2023-01-18T06:21:02.345Z,76.82
2023-01-18T06:23:32.375Z,76.71
2023-01-18T06:26:00.626Z,76.70
2023-01-18T06:28:30.687Z,76.57
2023-01-18T06:31:00.501Z,76.45
2023-01-18T06:33:28.817Z,76.31
2023-01-18T06:35:57.070Z,76.26
2023-01-18T06:38:25.442Z,76.38
2023-01-18T06:40:55.202Z,76.43
2023-01-18T06:43:23.470Z,76.44
2023-01-18T06:45:55.675Z,76.50
2023-01-18T06:48:24.464Z,76.73
2023-01-18T06:50:53.480Z,76.76
2023-01-18T06:53:22.054Z,76.85
2023-01-18T06:55:59.477Z,77.01
2023-01-18T06:58:28.679Z,77.00
2023-01-18T07:00:57.490Z,76.99
2023-01-18T07:03:27.694Z,77.21
2023-01-18T07:05:56.421Z,77.26
2023-01-18T07:08:27.015Z,77.31
2023-01-18T07:10:55.584Z,77.34
2023-01-18T07:13:25.672Z,77.50
2023-01-18T07:15:56.634Z,77.49
2023-01-18T07:18:25.326Z,77.54
2023-01-18T07:21:01.229Z,77.45
2023-01-18T07:23:30.305Z,77.60
2023-01-18T07:26:02.917Z,77.70
2023-01-18T07:28:32.960Z,77.78
2023-01-18T07:31:01.906Z,77.68
2023-01-18T07:33:31.002Z,77.82
2023-01-18T07:35:59.731Z,77.82
2023-01-18T07:38:28.488Z,77.76
2023-01-18T07:41:02.650Z,77.69
2023-01-18T07:43:33.077Z,77.69
2023-01-18T07:46:04.101Z,77.66
2023-01-18T07:48:38.815Z,77.89
2023-01-18T07:51:09.522Z,77.92
2023-01-18T07:53:39.412Z,77.96
2023-01-18T07:56:09.841Z,77.97
2023-01-18T07:58:39.699Z,77.97
2023-01-18T08:01:10.008Z,77.89
2023-01-18T08:03:40.104Z,77.81
2023-01-18T08:06:09.480Z,77.82
2023-01-18T08:08:38.307Z,77.76
2023-01-18T08:11:07.825Z,77.63
2023-01-18T08:13:36.463Z,77.69
2023-01-18T08:16:08.631Z,77.76
2023-01-18T08:18:36.984Z,77.87
2023-01-18T08:21:06.107Z,77.72
2023-01-18T08:23:34.467Z,77.58
2023-01-18T08:26:03.427Z,77.41
2023-01-18T08:28:31.846Z,77.22
2023-01-18T08:31:09.865Z,77.30
2023-01-18T08:33:41.357Z,77.40
2023-01-18T08:36:14.343Z,77.49
2023-01-18T08:38:42.601Z,77.46
2023-01-18T08:41:10.892Z,77.41
2023-01-18T08:43:39.720Z,77.47
2023-01-18T08:46:09.397Z,77.35
2023-01-18T08:48:38.127Z,77.33
2023-01-18T08:51:06.769Z,77.21
2023-01-18T08:53:35.054Z,77.08
2023-01-18T08:56:06.779Z,76.90
2023-01-18T08:58:35.080Z,76.73
2023-01-18T09:01:06.638Z,76.65
2023-01-18T09:03:37.227Z,76.48
2023-01-18T09:06:12.461Z,76.44
2023-01-18T09:08:41.301Z,76.28
2023-01-18T09:11:12.045Z,76.23
2023-01-18T09:13:58.501Z,76.03
2023-01-18T09:16:27.680Z,76.05
2023-01-18T09:18:58.459Z,75.98
2023-01-18T09:21:29.166Z,75.91
2023-01-18T09:24:00.758Z,75.86
2023-01-18T09:26:35.239Z,75.76
2023-01-18T09:29:03.632Z,75.59
2023-01-18T09:31:32.071Z,75.50
2023-01-18T09:34:18.512Z,75.45
2023-01-18T09:36:50.287Z,75.47
2023-01-18T09:39:18.684Z,75.43
2023-01-18T09:41:53.581Z,75.41
2023-01-18T09:44:26.902Z,75.22
2023-01-18T09:46:58.594Z,75.41
2023-01-18T09:49:35.906Z,75.31
2023-01-18T09:52:14.863Z,75.12
2023-01-18T09:54:53.696Z,75.28
2023-01-18T09:57:38.605Z,75.07
2023-01-18T10:00:18.464Z,75.25
2023-01-18T10:02:49.667Z,75.14
2023-01-18T10:05:22.526Z,75.31
2023-01-18T10:08:02.473Z,75.07
2023-01-18T10:10:35.071Z,75.18
2023-01-18T10:13:18.367Z,75.36
2023-01-18T10:15:46.988Z,75.12
2023-01-18T10:18:18.179Z,75.11
2023-01-18T10:20:53.105Z,75.27
2023-01-18T10:23:31.274Z,75.21
2023-01-18T10:26:03.850Z,74.96
2023-01-18T10:28:46.826Z,75.17
2023-01-18T10:31:31.915Z,74.99
2023-01-18T10:34:05.497Z,75.30
2023-01-18T10:36:39.842Z,75.08
2023-01-18T10:39:25.562Z,75.09
2023-01-18T10:41:54.703Z,74.98
2023-01-18T10:44:23.918Z,75.11
2023-01-18T10:46:57.524Z,75.14
2023-01-18T10:49:44.619Z,75.22
2023-01-18T10:52:24.369Z,74.77
2023-01-18T10:54:55.879Z,74.73
2023-01-18T10:57:27.845Z,74.89
2023-01-18T10:59:56.771Z,75.30
2023-01-18T11:02:30.338Z,74.84
2023-01-18T11:05:03.769Z,74.58
2023-01-18T11:07:33.967Z,74.69
2023-01-18T11:10:09.600Z,75.31
2023-01-18T11:12:43.698Z,75.49
2023-01-18T11:15:24.830Z,75.48
2023-01-18T11:18:06.163Z,75.36
2023-01-18T11:20:39.220Z,75.33
2023-01-18T11:23:22.763Z,75.34
2023-01-18T11:25:56.393Z,75.88
2023-01-18T11:28:27.106Z,75.88
2023-01-18T11:30:58.350Z,75.28
2023-01-18T11:33:29.568Z,75.38
2023-01-18T11:36:00.396Z,74.87
2023-01-18T11:38:32.777Z,75.29
2023-01-18T11:41:23.394Z,75.70
2023-01-18T11:44:09.676Z,75.41
2023-01-18T11:46:45.224Z,76.14
2023-01-18T11:49:31.988Z,75.89
2023-01-18T11:52:03.028Z,75.71
2023-01-18T11:54:37.913Z,76.01
2023-01-18T11:57:10.239Z,76.08
2023-01-18T11:59:43.581Z,76.43
2023-01-18T12:02:42.032Z,76.16
2023-01-18T12:05:30.880Z,76.55
2023-01-18T12:08:15.964Z,75.27
2023-01-18T12:11:00.122Z,75.85
2023-01-18T12:13:37.250Z,75.95
2023-01-18T12:16:13.709Z,76.50
2023-01-18T12:19:16.190Z,76.48
2023-01-18T12:22:00.373Z,76.44
2023-01-18T12:24:46.116Z,77.06
2023-01-18T12:27:24.331Z,76.17
2023-01-18T12:30:07.277Z,76.57
2023-01-18T12:32:51.897Z,76.28
2023-01-18T12:35:39.631Z,77.35
2023-01-18T12:38:18.386Z,76.30
2023-01-18T12:41:13.045Z,75.37
2023-01-18T12:43:51.570Z,76.92
2023-01-18T12:46:28.022Z,76.89
2023-01-18T12:49:01.192Z,75.62
2023-01-18T12:51:34.107Z,76.57
2023-01-18T12:54:06.334Z,75.95
2023-01-18T12:56:39.481Z,75.63
2023-01-18T12:59:16.442Z,75.97
2023-01-18T13:01:51.837Z,75.95
2023-01-18T13:04:24.513Z,76.34
2023-01-18T13:06:57.213Z,75.69
2023-01-18T13:09:33.215Z,76.75
2023-01-18T13:12:06.749Z,76.28
2023-01-18T13:14:43.629Z,76.11
2023-01-18T13:17:20.913Z,76.88
2023-01-18T13:19:55.969Z,76.24
2023-01-18T13:22:34.969Z,76.23
2023-01-18T13:25:32.536Z,76.84
2023-01-18T13:28:03.028Z,76.36
2023-01-18T13:30:35.241Z,76.79
2023-01-18T13:33:13.708Z,76.66
2023-01-18T13:35:52.476Z,76.42
2023-01-18T13:38:36.280Z,76.05
2023-01-18T13:41:11.678Z,75.61
2023-01-18T13:44:04.600Z,76.31
2023-01-18T13:46:39.349Z,76.44
2023-01-18T13:49:37.939Z,76.73
2023-01-18T13:52:33.605Z,75.62
2023-01-18T13:55:05.546Z,76.02
2023-01-18T13:57:35.661Z,76.79
2023-01-18T14:00:08.188Z,76.02
2023-01-18T14:02:43.439Z,76.70
2023-01-18T14:05:26.084Z,75.54
2023-01-18T14:07:57.274Z,75.99
2023-01-18T14:10:30.490Z,75.86
2023-01-18T14:13:00.894Z,76.55
2023-01-18T14:15:53.824Z,75.49
2023-01-18T14:18:26.563Z,75.37
2023-01-18T14:21:17.704Z,75.62
2023-01-18T14:24:15.923Z,75.58
2023-01-18T14:26:46.402Z,76.36
2023-01-18T14:29:20.945Z,75.87
2023-01-18T14:31:53.802Z,76.77
2023-01-18T14:34:37.340Z,75.06
2023-01-18T14:37:26.208Z,76.09
2023-01-18T14:40:06.181Z,76.02
2023-01-18T14:42:35.875Z,76.08
2023-01-18T14:45:05.946Z,75.68
2023-01-18T14:47:36.138Z,76.17
2023-01-18T14:50:12.987Z,76.21
2023-01-18T14:52:43.882Z,76.31
2023-01-18T14:55:26.485Z,76.61
2023-01-18T14:58:04.022Z,75.22
2023-01-18T15:00:32.669Z,76.59
2023-01-18T15:03:02.064Z,77.47
2023-01-18T15:05:32.049Z,76.05
2023-01-18T15:08:00.908Z,76.28
2023-01-18T15:10:29.471Z,75.70
2023-01-18T15:13:00.744Z,75.97
2023-01-18T15:15:33.207Z,76.09
2023-01-18T15:18:06.654Z,75.06
2023-01-18T15:20:36.358Z,75.83
2023-01-18T15:23:06.059Z,75.63
2023-01-18T15:25:34.748Z,76.20
2023-01-18T15:28:22.487Z,75.73
2023-01-18T15:30:53.696Z,75.96
2023-01-18T15:33:24.747Z,75.77
2023-01-18T15:35:58.031Z,75.76
2023-01-18T15:38:26.343Z,75.58
2023-01-18T15:41:00.206Z,75.63
2023-01-18T15:43:32.781Z,75.47
2023-01-18T15:46:01.755Z,76.05
2023-01-18T15:48:37.334Z,75.81
2023-01-18T15:51:11.100Z,75.56
2023-01-18T15:53:46.048Z,75.53
2023-01-18T15:56:19.187Z,75.50
2023-01-18T15:58:50.040Z,75.69
2023-01-18T16:01:21.274Z,75.73
2023-01-18T16:03:58.975Z,75.47
2023-01-18T16:06:34.001Z,75.32
2023-01-18T16:09:10.483Z,75.90
2023-01-18T16:11:49.845Z,75.43
2023-01-18T16:14:31.035Z,75.39
2023-01-18T16:17:04.186Z,75.53
2023-01-18T16:19:35.494Z,75.51
2023-01-18T16:22:07.589Z,75.56
2023-01-18T16:24:38.299Z,75.44
2023-01-18T16:27:11.646Z,75.58
2023-01-18T16:29:44.056Z,75.66
2023-01-18T16:32:29.771Z,75.59
2023-01-18T16:34:59.978Z,75.45
2023-01-18T16:37:30.728Z,75.53
2023-01-18T16:39:59.029Z,75.47
2023-01-18T16:42:37.628Z,75.47
2023-01-18T16:45:13.580Z,75.50
2023-01-18T16:47:42.379Z,75.38
2023-01-18T16:50:15.018Z,75.60
2023-01-18T16:52:44.822Z,75.60
2023-01-18T16:55:13.662Z,75.33
2023-01-18T16:57:42.863Z,75.30
2023-01-18T17:00:17.928Z,75.34
2023-01-18T17:02:46.778Z,75.60
2023-01-18T17:05:15.929Z,75.79
2023-01-18T17:07:45.954Z,75.34
2023-01-18T17:10:21.574Z,75.24
2023-01-18T17:12:49.829Z,75.43
2023-01-18T17:15:20.774Z,75.43
2023-01-18T17:17:50.321Z,75.31
2023-01-18T17:20:20.946Z,75.22
2023-01-18T17:22:51.776Z,75.30
2023-01-18T17:25:20.600Z,75.45
2023-01-18T17:27:49.272Z,75.22
2023-01-18T17:30:19.548Z,75.31
2023-01-18T17:32:48.183Z,75.41
2023-01-18T17:35:17.910Z,75.45
2023-01-18T17:37:46.246Z,75.41
2023-01-18T17:40:24.101Z,75.60
2023-01-18T17:42:56.493Z,75.49
2023-01-18T17:45:24.713Z,75.40
2023-01-18T17:47:54.033Z,75.34
2023-01-18T17:50:24.946Z,75.49
2023-01-18T17:52:54.198Z,75.15
2023-01-18T17:55:34.342Z,75.40
2023-01-18T17:58:03.784Z,75.20
2023-01-18T18:00:32.464Z,75.09
2023-01-18T18:03:01.964Z,75.34
2023-01-18T18:05:30.441Z,75.09
2023-01-18T18:07:58.847Z,75.50
2023-01-18T18:10:28.642Z,75.38
2023-01-18T18:12:57.045Z,75.47
2023-01-18T18:15:25.364Z,75.42
2023-01-18T18:17:53.617Z,75.41
2023-01-18T18:20:23.000Z,75.49
2023-01-18T18:22:51.385Z,75.37
2023-01-18T18:25:20.073Z,75.39
2023-01-18T18:27:49.868Z,75.29
2023-01-18T18:30:18.917Z,75.28
2023-01-18T18:32:47.310Z,75.41
2023-01-18T18:35:25.014Z,75.50
2023-01-18T18:38:15.499Z,75.57
2023-01-18T18:40:44.191Z,75.60
2023-01-18T18:43:14.132Z,75.55
2023-01-18T18:45:43.776Z,75.61
2023-01-18T18:48:13.126Z,75.56
2023-01-18T18:50:42.024Z,75.71
2023-01-18T18:53:10.390Z,75.63
2023-01-18T18:55:38.983Z,75.60
2023-01-18T18:58:07.304Z,75.54
2023-01-18T19:00:37.073Z,75.38
2023-01-18T19:03:07.234Z,75.38
2023-01-18T19:05:37.192Z,75.33
2023-01-18T19:08:05.833Z,75.31
2023-01-18T19:10:34.406Z,75.28
2023-01-18T19:13:04.893Z,75.36
2023-01-18T19:15:33.244Z,75.32
2023-01-18T19:18:02.851Z,75.25
2023-01-18T19:20:32.931Z,75.31
2023-01-18T19:23:01.928Z,75.37
2023-01-18T19:25:31.155Z,75.48
2023-01-18T19:27:59.728Z,75.59
2023-01-18T19:30:28.138Z,75.89
2023-01-18T19:32:56.628Z,76.10
2023-01-18T19:35:26.995Z,76.29
2023-01-18T19:37:55.726Z,76.34
2023-01-18T19:40:24.036Z,76.37
2023-01-18T19:42:55.791Z,76.34
2023-01-18T19:45:28.160Z,76.42
2023-01-18T19:47:58.070Z,76.37
2023-01-18T19:50:29.243Z,76.32
2023-01-18T19:52:58.319Z,76.26
2023-01-18T19:55:26.913Z,76.16
2023-01-18T19:57:56.855Z,76.07
2023-01-18T20:00:25.875Z,75.88
2023-01-18T20:02:54.720Z,75.78
2023-01-18T20:05:23.251Z,75.76
2023-01-18T20:07:53.209Z,75.70
2023-01-18T20:10:21.628Z,75.73
2023-01-18T20:12:50.158Z,75.75
2023-01-18T20:15:19.092Z,75.81
2023-01-18T20:17:47.396Z,75.85
2023-01-18T20:20:24.150Z,75.95
2023-01-18T20:23:03.985Z,76.16
2023-01-18T20:25:32.965Z,76.30
2023-01-18T20:28:01.646Z,76.47
2023-01-18T20:30:29.989Z,76.69
2023-01-18T20:32:58.688Z,76.78
2023-01-18T20:35:27.584Z,76.88
2023-01-18T20:37:56.382Z,76.98
2023-01-18T20:40:26.205Z,76.97
2023-01-18T20:42:54.508Z,76.92
2023-01-18T20:45:22.803Z,77.02
2023-01-18T20:47:51.104Z,77.07
2023-01-18T20:50:19.637Z,77.21
2023-01-18T20:52:47.925Z,77.37
2023-01-18T20:55:16.606Z,77.39
2023-01-18T20:57:46.489Z,77.49
2023-01-18T21:00:16.278Z,77.55
2023-01-18T21:02:44.589Z,77.62
2023-01-18T21:05:14.042Z,77.67
2023-01-18T21:07:43.267Z,77.63
2023-01-18T21:10:12.684Z,77.60
2023-01-18T21:12:41.878Z,77.73
2023-01-18T21:15:12.857Z,77.89
2023-01-18T21:17:41.555Z,78.08
2023-01-18T21:20:11.435Z,78.21
2023-01-18T21:22:40.155Z,78.36
2023-01-18T21:25:08.876Z,78.46
2023-01-18T21:27:37.451Z,78.53
2023-01-18T21:30:06.625Z,78.50
2023-01-18T21:32:36.315Z,78.66
2023-01-18T21:35:06.524Z,78.87
2023-01-18T21:37:35.143Z,78.85
2023-01-18T21:40:03.671Z,78.67
2023-01-18T21:42:49.182Z,78.58
2023-01-18T21:45:35.102Z,78.37
2023-01-18T21:48:08.699Z,78.35
2023-01-18T21:50:58.383Z,78.33
2023-01-18T21:53:44.434Z,78.24
2023-01-18T21:56:12.868Z,78.18
2023-01-18T21:58:57.992Z,78.25
2023-01-18T22:01:33.925Z,78.20
2023-01-18T22:04:23.697Z,78.12
2023-01-18T22:06:53.101Z,78.05
2023-01-18T22:09:21.988Z,77.82
2023-01-18T22:11:50.236Z,77.58
2023-01-18T22:14:18.439Z,77.34
2023-01-18T22:16:46.783Z,77.21
2023-01-18T22:19:16.689Z,76.97
2023-01-18T22:21:44.929Z,76.63
2023-01-18T22:24:13.709Z,76.41
2023-01-18T22:26:42.291Z,76.41
2023-01-18T22:29:11.390Z,76.38
2023-01-18T22:31:40.463Z,76.24
2023-01-18T22:34:09.196Z,76.02
2023-01-18T22:36:39.746Z,75.85
2023-01-18T22:39:08.096Z,75.73
2023-01-18T22:41:36.410Z,75.60
2023-01-18T22:44:04.775Z,75.63
2023-01-18T22:46:33.114Z,75.58
2023-01-18T22:49:01.373Z,75.51
2023-01-18T22:51:29.832Z,75.55
2023-01-18T22:53:59.484Z,75.68
2023-01-18T22:56:27.880Z,75.76
2023-01-18T22:58:56.117Z,76.11
2023-01-18T23:01:26.590Z,76.11
2023-01-18T23:03:57.201Z,76.21
2023-01-18T23:06:26.272Z,76.12
2023-01-18T23:08:54.974Z,76.05
2023-01-18T23:11:27.017Z,76.13
2023-01-18T23:14:14.582Z,76.20
2023-01-18T23:17:00.594Z,76.22
2023-01-18T23:19:30.623Z,76.21
2023-01-18T23:21:59.515Z,76.41
2023-01-18T23:24:27.996Z,76.61
2023-01-18T23:26:57.585Z,76.39
2023-01-18T23:29:26.000Z,76.18
2023-01-18T23:31:54.277Z,76.07
2023-01-18T23:34:22.821Z,76.18
2023-01-18T23:36:51.643Z,76.23
2023-01-18T23:39:37.623Z,76.28
2023-01-18T23:42:25.033Z,76.44
2023-01-18T23:45:11.106Z,76.46
2023-01-18T23:47:57.145Z,76.18
2023-01-18T23:50:43.003Z,76.08
2023-01-18T23:53:30.791Z,76.15
2023-01-18T23:55:59.534Z,76.10
2023-01-18T23:58:29.618Z,75.99
